logo tempoitalia

Diretta Meteo Chengdu, Cinalunedì 31 agosto ore 13:00

Mappa
Sereno 33 °C Sereno 24 Ore: T.min 21 T.max 33
Ponente Nord Km/h 10.8 Punto di rugiada: 17 °C Umidità: 38% Visibilità: 10 Km
Il sole sorge alle: 06:39 Il sole tramonta alle: 19:28
31 Agosto 2026 13:00 tempo osservato: Sereno Sereno 33 38 1012 vento: Nord N 10.8
31 Agosto 2026 12:00 tempo osservato: Sereno Sereno 32 40 1013 vento: Nord E 10.8
31 Agosto 2026 11:00 tempo osservato: Sereno Sereno 31 45 1013 vento: Nord N 10.8
31 Agosto 2026 10:00 tempo osservato: Sereno Sereno 30 45 1013 vento: Nord N 7.2
31 Agosto 2026 09:00 tempo osservato: Sereno Sereno 26 57 1013 vento: Nord N 7.2
31 Agosto 2026 08:00 tempo osservato: Sereno Sereno 26 65 1013 vento: Nord N 3.6
31 Agosto 2026 07:00 tempo osservato: Sereno Sereno 22 88 1012 vento: Nord N 7.2
31 Agosto 2026 06:00 tempo osservato: Sereno Sereno 22 83 1011 vento: Nord N 0
31 Agosto 2026 05:00 tempo osservato: Sereno Sereno 21 94 1011 vento: Nord N 7.2
31 Agosto 2026 04:00 tempo osservato: Sereno Sereno 23 88 1011 vento: Nord N 3.6
31 Agosto 2026 03:00 tempo osservato: Sereno Sereno 23 83 1011 vento: Nord N 7.2
31 Agosto 2026 02:00 tempo osservato: Sereno Sereno 25 73 1012 vento: Nord N 7.2
31 Agosto 2026 01:00 tempo osservato: Sereno Sereno 25 73 1011 vento: Nord N 3.6
31 Agosto 2026 00:00 tempo osservato: Sereno Sereno 25 78 1012 vento: Nord N 7.2
30 Agosto 2026 23:00 tempo osservato: Sereno Sereno 26 69 1012 vento: Nord N 3.6
30 Agosto 2026 22:00 tempo osservato: Sereno Sereno 27 57 1011 vento: Nord N 0
30 Agosto 2026 21:00 tempo osservato: Sereno Sereno 29 45 1010 vento: Nord N 7.2
30 Agosto 2026 20:00 tempo osservato: Sereno Sereno 30 45 1010 vento: Nord N 7.2
30 Agosto 2026 19:00 tempo osservato: Sereno Sereno 31 43 1010 vento: Nord O 10.8
30 Agosto 2026 18:00 tempo osservato: Sereno Sereno 32 40 1010 vento: Nord O 10.8
30 Agosto 2026 17:00 tempo osservato: Sereno Sereno 33 29 1010 vento: Nord N 3.6
30 Agosto 2026 16:00 tempo osservato: Sereno Sereno 33 31 1010 vento: Nord N 7.2
30 Agosto 2026 15:00 tempo osservato: Sereno Sereno 33 33 1011 vento: Nord N 3.6
30 Agosto 2026 14:00 tempo osservato: Sereno Sereno 32 35 1011 vento: Nord N 7.2